Аэропорт: Челябинск. Челябинск

ICAO: USCC

METAR:
2020-06-02 07:00:00
USCC 020700Z 36004MPS 9999 BKN013CB 12/10 Q1016 R27/290050 NOSIG RMK QFE742
METAR:
2020-06-02 05:00:00
TAF USCC 020500Z 0206/0306 03003G10MPS 6000 BKN020CB TEMPO 0206/0215 -SHRA BKN016CB